Nichiryu Maru — JG5632 — position and weather

sailwx.info

Track history (hours):
 
Tides and Currents Weather Stations Pressure Air Temp Water Temp Dewpoint Dewpoint Depression Visibility Wind Speed Wind Dir Waves Ship Positions

Nichiryu Maru

Last reported at 2014-Oct-31 07:33 UTC. Time now 2014-Nov-01 00:26 UTC.
Position N 34°36' E 135°03'.

Length 158 m; draft 6.5 m.

Type: Cargo ship. MMSI: 43100939.

Date/timePositionNaut miles runAvg speedWind from/ knotsBaromVisibWave heightAir tempDewpointWater temp
2014-Oct-31 07:33N 34°36' E 135°03'1010.0
2014-Oct-31 06:33N 34°41' E 135°14'0 0.1
2014-Oct-31 05:31N 34°41' E 135°13'0 0.0
2014-Oct-31 04:19N 34°41' E 135°13'0 0.0
2014-Oct-31 03:31N 34°41' E 135°13'9 9.5
2014-Oct-31 02:33N 34°32' E 135°14'1918.7
2014-Oct-31 01:33N 34°17' E 134°59'1918.7
2014-Oct-31 00:33N 33°58' E 134°57'24417.1
2014-Oct-30 10:14N 35°05' E 139°42'1015.5
2014-Oct-30 09:33N 35°15' E 139°46'7 4.8
2014-Oct-30 08:09N 35°19' E 139°39'0 0.0
2014-Oct-30 05:33N 35°19' E 139°39'0 0.0
2014-Oct-30 04:15N 35°19' E 139°39'3 4.7
2014-Oct-30 03:33N 35°18' E 139°43'1212.0
2014-Oct-30 02:31N 35°06' E 139°46'  
2014-Oct-27 11:20N 35°04' E 139°37'1316.3
2014-Oct-27 10:33N 35°14' E 139°46'7 7.4
2014-Oct-27 09:33N 35°19' E 139°39'0 0.0
2014-Oct-27 08:33N 35°19' E 139°39'0 0.0
2014-Oct-27 07:30N 35°19' E 139°39'0 0.0
2014-Oct-27 06:27N 35°19' E 139°39'0 0.0
2014-Oct-27 05:30N 35°19' E 139°39'0 0.0
2014-Oct-27 04:33N 35°19' E 139°39'0 0.0
2014-Oct-27 03:33N 35°19' E 139°39'0 0.0
2014-Oct-27 02:33N 35°19' E 139°39'0 0.0
2014-Oct-27 01:33N 35°19' E 139°39'0 0.0
2014-Oct-27 00:33N 35°19' E 139°39'0 0.0
2014-Oct-26 23:33N 35°19' E 139°39'2 1.8
2014-Oct-26 22:31N 35°19' E 139°41'0 0.0
2014-Oct-26 21:31N 35°19' E 139°41'0 0.0
2014-Oct-26 20:31N 35°19' E 139°41'0 0.0
2014-Oct-26 19:31N 35°19' E 139°41'0 0.0
2014-Oct-26 18:31N 35°19' E 139°41'0 0.0
2014-Oct-26 17:31N 35°19' E 139°41'0 0.0
2014-Oct-26 16:31N 35°19' E 139°41'0 0.0
2014-Oct-26 15:31N 35°19' E 139°41'0 0.1
2014-Oct-26 14:31N 35°19' E 139°41'0 0.1
2014-Oct-26 13:31N 35°19' E 139°41'0 0.0
2014-Oct-26 12:31N 35°19' E 139°41'4 3.7
2014-Oct-26 11:33N 35°17' E 139°45'1515.0
2014-Oct-26 10:33N 35°03' E 139°41'352 8.2
2014-Oct-24 15:24N 33°57' E 132°41'11315.7
2014-Oct-24 08:14N 34°34' E 134°50'1116.8
2014-Oct-24 07:33N 34°36' E 135°03'1010.0
2014-Oct-24 06:33N 34°41' E 135°14'0 0.5
2014-Oct-24 05:32N 34°41' E 135°13'0 0.0
2014-Oct-24 04:32N 34°41' E 135°13'0 0.0
2014-Oct-24 03:32N 34°41' E 135°13'9 9.4
2014-Oct-24 02:33N 34°32' E 135°12'1818.4
2014-Oct-24 01:33N 34°16' E 134°60'1818.1
2014-Oct-24 00:33N 33°58' E 134°60'24417.4
2014-Oct-23 10:32N 35°08' E 139°44'1111.6
2014-Oct-23 09:33N 35°19' E 139°40'1 0.7
2014-Oct-23 08:28N 35°19' E 139°39'0 0.0
2014-Oct-23 07:16N 35°19' E 139°39'0 0.0
2014-Oct-23 05:13N 35°19' E 139°39'0 0.0
2014-Oct-23 04:25N 35°19' E 139°39'3 3.5
2014-Oct-23 03:33N 35°19' E 139°43'1313.4
2014-Oct-23 02:33N 35°05' E 139°44'  
Track history (hours):
 
Tides and Currents Weather Stations Pressure Air Temp Water Temp Dewpoint Dewpoint Depression Visibility Wind Speed Wind Dir Waves Ship Positions

Nichiryu Maru

Last reported at 2014-Oct-31 07:33 UTC. Time now 2014-Nov-01 00:26 UTC.
Position N 34°36' E 135°03'.

Length 158 m; draft 6.5 m.

Type: Cargo ship. MMSI: 43100939.

Date/timePositionNaut miles runAvg speedWind from/ knotsBaromVisibWave heightAir tempDewpointWater temp
2014-Oct-31 07:33N 34°36' E 135°03'1010.0
2014-Oct-31 06:33N 34°41' E 135°14'0 0.1
2014-Oct-31 05:31N 34°41' E 135°13'0 0.0
2014-Oct-31 04:19N 34°41' E 135°13'0 0.0
2014-Oct-31 03:31N 34°41' E 135°13'9 9.5
2014-Oct-31 02:33N 34°32' E 135°14'1918.7
2014-Oct-31 01:33N 34°17' E 134°59'1918.7
2014-Oct-31 00:33N 33°58' E 134°57'24417.1
2014-Oct-30 10:14N 35°05' E 139°42'1015.5
2014-Oct-30 09:33N 35°15' E 139°46'7 4.8
2014-Oct-30 08:09N 35°19' E 139°39'0 0.0
2014-Oct-30 05:33N 35°19' E 139°39'0 0.0
2014-Oct-30 04:15N 35°19' E 139°39'3 4.7
2014-Oct-30 03:33N 35°18' E 139°43'1212.0
2014-Oct-30 02:31N 35°06' E 139°46'  
2014-Oct-27 11:20N 35°04' E 139°37'1316.3
2014-Oct-27 10:33N 35°14' E 139°46'7 7.4
2014-Oct-27 09:33N 35°19' E 139°39'0 0.0
2014-Oct-27 08:33N 35°19' E 139°39'0 0.0
2014-Oct-27 07:30N 35°19' E 139°39'0 0.0
2014-Oct-27 06:27N 35°19' E 139°39'0 0.0
2014-Oct-27 05:30N 35°19' E 139°39'0 0.0
2014-Oct-27 04:33N 35°19' E 139°39'0 0.0
2014-Oct-27 03:33N 35°19' E 139°39'0 0.0
2014-Oct-27 02:33N 35°19' E 139°39'0 0.0
2014-Oct-27 01:33N 35°19' E 139°39'0 0.0
2014-Oct-27 00:33N 35°19' E 139°39'0 0.0
2014-Oct-26 23:33N 35°19' E 139°39'2 1.8
2014-Oct-26 22:31N 35°19' E 139°41'0 0.0
2014-Oct-26 21:31N 35°19' E 139°41'0 0.0
2014-Oct-26 20:31N 35°19' E 139°41'0 0.0
2014-Oct-26 19:31N 35°19' E 139°41'0 0.0
2014-Oct-26 18:31N 35°19' E 139°41'0 0.0
2014-Oct-26 17:31N 35°19' E 139°41'0 0.0
2014-Oct-26 16:31N 35°19' E 139°41'0 0.0
2014-Oct-26 15:31N 35°19' E 139°41'0 0.1
2014-Oct-26 14:31N 35°19' E 139°41'0 0.1
2014-Oct-26 13:31N 35°19' E 139°41'0 0.0
2014-Oct-26 12:31N 35°19' E 139°41'4 3.7
2014-Oct-26 11:33N 35°17' E 139°45'1515.0
2014-Oct-26 10:33N 35°03' E 139°41'352 8.2
2014-Oct-24 15:24N 33°57' E 132°41'11315.7
2014-Oct-24 08:14N 34°34' E 134°50'1116.8
2014-Oct-24 07:33N 34°36' E 135°03'1010.0
2014-Oct-24 06:33N 34°41' E 135°14'0 0.5
2014-Oct-24 05:32N 34°41' E 135°13'0 0.0
2014-Oct-24 04:32N 34°41' E 135°13'0 0.0
2014-Oct-24 03:32N 34°41' E 135°13'9 9.4
2014-Oct-24 02:33N 34°32' E 135°12'1818.4
2014-Oct-24 01:33N 34°16' E 134°60'1818.1
2014-Oct-24 00:33N 33°58' E 134°60'24417.4
2014-Oct-23 10:32N 35°08' E 139°44'1111.6
2014-Oct-23 09:33N 35°19' E 139°40'1 0.7
2014-Oct-23 08:28N 35°19' E 139°39'0 0.0
2014-Oct-23 07:16N 35°19' E 139°39'0 0.0
2014-Oct-23 05:13N 35°19' E 139°39'0 0.0
2014-Oct-23 04:25N 35°19' E 139°39'3 3.5
2014-Oct-23 03:33N 35°19' E 139°43'1313.4
2014-Oct-23 02:33N 35°05' E 139°44'  

Dump ship's entire track history